createdAt,value
2023-04-30T00:03:53.902Z,14.6
2023-04-30T00:18:53.874Z,14.8
2023-04-30T00:33:53.827Z,14.7
2023-04-30T00:48:53.818Z,14.6
2023-04-30T01:03:53.762Z,14.5
2023-04-30T01:18:54.145Z,14.3
2023-04-30T01:33:53.704Z,14.3
2023-04-30T01:48:53.747Z,14.3
2023-04-30T02:03:53.797Z,14.2
2023-04-30T02:18:53.698Z,14.1
2023-04-30T02:33:53.624Z,14.1
2023-04-30T02:48:53.667Z,14.1
2023-04-30T03:03:53.582Z,14
2023-04-30T03:18:53.666Z,14
2023-04-30T03:33:53.539Z,13.9
2023-04-30T03:48:53.541Z,13.7
2023-04-30T04:03:53.572Z,13.7
2023-04-30T04:18:53.531Z,13.6
2023-04-30T04:33:53.481Z,13.6
2023-04-30T04:48:53.509Z,13.4
2023-04-30T05:03:53.515Z,13.2
2023-04-30T05:18:53.447Z,13.2
2023-04-30T05:33:53.396Z,13.4
2023-04-30T05:48:53.400Z,13.3
2023-04-30T06:03:53.343Z,13.1
2023-04-30T06:18:53.987Z,13.2
2023-04-30T06:33:53.309Z,13.3
2023-04-30T06:48:53.341Z,13.5
2023-04-30T07:03:53.416Z,13.3
2023-04-30T07:18:53.289Z,13.2
2023-04-30T07:33:53.206Z,13.1
2023-04-30T07:48:53.269Z,13.1
2023-04-30T08:03:53.241Z,13.5
2023-04-30T08:18:53.209Z,13.8
2023-04-30T08:33:53.183Z,14.1
2023-04-30T08:48:53.179Z,14.1
2023-04-30T09:03:53.167Z,14.1
2023-04-30T09:18:53.120Z,14
2023-04-30T09:33:53.072Z,13.9
2023-04-30T09:48:53.102Z,13.7
2023-04-30T10:03:53.064Z,13.6
2023-04-30T10:18:53.019Z,13.5
2023-04-30T10:33:52.980Z,13.3
2023-04-30T10:48:53.013Z,13.4
2023-04-30T11:03:52.958Z,13.4
2023-04-30T11:18:52.956Z,13.4
2023-04-30T11:33:52.905Z,13.4
2023-04-30T11:48:52.903Z,13.5
2023-04-30T12:03:53.059Z,13.5
2023-04-30T12:18:53.229Z,13.5
2023-04-30T12:33:52.823Z,13.5
2023-04-30T12:48:52.911Z,13.5
2023-04-30T13:03:53.119Z,13.5
2023-04-30T13:18:52.820Z,13.6
2023-04-30T13:33:52.755Z,13.8
2023-04-30T13:48:52.769Z,13.9
2023-04-30T14:03:52.801Z,14.1
2023-04-30T14:18:52.717Z,14.2
2023-04-30T14:33:52.619Z,14.2
2023-04-30T14:48:52.645Z,14.3
2023-04-30T15:03:52.772Z,14.4
2023-04-30T15:18:52.602Z,14.6
2023-04-30T15:33:52.543Z,14.3
2023-04-30T15:48:52.568Z,14.3
2023-04-30T16:03:52.731Z,14.3
2023-04-30T16:18:52.530Z,14.5
2023-04-30T16:33:52.438Z,14.5
2023-04-30T16:48:52.461Z,14.8
2023-04-30T17:03:52.528Z,15.3
2023-04-30T17:18:52.435Z,15.7
2023-04-30T17:33:52.400Z,15.4
2023-04-30T17:48:52.385Z,15.1
2023-04-30T18:03:52.470Z,14.8
2023-04-30T18:18:52.346Z,14.4
2023-04-30T18:33:52.270Z,14.1
2023-04-30T18:48:52.274Z,13.9
2023-04-30T19:03:52.259Z,13.8
2023-04-30T19:18:52.242Z,13.7
2023-04-30T19:33:52.179Z,13.6
2023-04-30T19:48:52.236Z,13.4
2023-04-30T20:03:52.348Z,13.3
2023-04-30T20:18:52.163Z,13.2
2023-04-30T20:33:52.103Z,13.1
2023-04-30T20:48:52.086Z,12.9
2023-04-30T21:03:52.128Z,12.9
2023-04-30T21:18:52.203Z,12.8
2023-04-30T21:33:52.023Z,12.8
2023-04-30T21:48:52.096Z,12.8
2023-04-30T22:03:52.051Z,12.7
2023-04-30T22:18:51.984Z,12.8
2023-04-30T22:33:51.934Z,12.8
2023-04-30T22:48:51.972Z,12.8
2023-04-30T23:03:51.902Z,12.7
2023-04-30T23:18:51.927Z,12.6
2023-04-30T23:33:51.860Z,12.6
2023-04-30T23:48:51.911Z,12.6
